Terminal Aerodrome Forecast
Issued by NWS Tampa Bay Area, FL

Home | Current Version | Previous Version | Text Only | Print | Product List | Glossary On
Versions: 1 2 3 4 5 6 7 8 9 10 11 12 13 14 15 16 17 18 19 20 21 22 23 24 25 26 27 28
000
FTUS42 KTBW 312300
TAFTPA
TAF
KTPA 312335Z 0100/0124 32009KT P6SM FEW050 FEW250
     FM010200 VRB03KT P6SM SCT250
     FM011500 26006KT P6SM FEW030 SCT250
     FM011800 27009KT P6SM VCTS SCT040CB BKN250=

USA.gov is the U.S. government's official web portal to all federal, state and local government web resources and services.